createdAt,value
2023-02-19T00:00:00.486Z,98893.12
2023-02-19T00:02:28.676Z,98889.36
2023-02-19T00:04:56.550Z,98888.91
2023-02-19T00:07:24.352Z,98878.57
2023-02-19T00:09:52.149Z,98869.82
2023-02-19T00:12:20.333Z,98863.02
2023-02-19T00:14:48.182Z,98865.91
2023-02-19T00:17:15.999Z,98856.25
2023-02-19T00:19:43.794Z,98849.09
2023-02-19T00:22:11.644Z,98843.37
2023-02-19T00:24:39.525Z,98832.28
2023-02-19T00:27:07.316Z,98826.36
2023-02-19T00:29:35.123Z,98827.86
2023-02-19T00:32:03.062Z,98830.07
2023-02-19T00:34:31.078Z,98834.35
2023-02-19T00:36:58.860Z,98831.89
2023-02-19T00:39:26.705Z,98834.77
2023-02-19T00:41:54.787Z,98839.94
2023-02-19T00:44:22.590Z,98847.67
2023-02-19T00:46:50.554Z,98849.46
2023-02-19T00:49:22.389Z,98854.89
2023-02-19T00:51:52.488Z,98866.52
2023-02-19T00:54:22.656Z,98866.17
2023-02-19T00:56:51.215Z,98848.16
2023-02-19T00:59:19.142Z,98842.11
2023-02-19T01:01:47.221Z,98838.70
2023-02-19T01:04:16.442Z,98844.17
2023-02-19T01:06:44.561Z,98849.98
2023-02-19T01:09:12.506Z,98844.55
2023-02-19T01:11:40.489Z,98837.50
2023-02-19T01:14:09.870Z,98833.98
2023-02-19T01:16:38.143Z,98835.81
2023-02-19T01:19:06.190Z,98837.48
2023-02-19T01:21:33.986Z,98833.79
2023-02-19T01:24:01.834Z,98832.44
2023-02-19T01:26:32.045Z,98825.85
2023-02-19T01:29:01.355Z,98813.66
2023-02-19T01:31:29.831Z,98810.09
2023-02-19T01:34:00.331Z,98806.96
2023-02-19T01:36:29.763Z,98806.31
2023-02-19T01:39:00.534Z,98802.09
2023-02-19T01:41:28.399Z,98801.46
2023-02-19T01:44:03.897Z,98799.52
2023-02-19T01:46:33.606Z,98796.19
2023-02-19T01:49:25.792Z,98793.79
2023-02-19T01:52:05.631Z,98787.33
2023-02-19T01:54:37.808Z,98778.98
2023-02-19T01:57:11.292Z,98771.30
2023-02-19T01:59:39.957Z,98762.18
2023-02-19T02:02:08.788Z,98756.08
2023-02-19T02:04:36.682Z,98749.71
2023-02-19T02:07:26.363Z,98743.12
2023-02-19T02:10:12.862Z,98734.77
2023-02-19T02:12:40.672Z,98733.40
2023-02-19T02:15:09.698Z,98731.77
2023-02-19T02:17:53.274Z,98728.42
2023-02-19T02:20:43.545Z,98726.88
2023-02-19T02:23:14.336Z,98722.54
2023-02-19T02:26:09.326Z,98723.86
2023-02-19T02:29:01.108Z,98719.16
2023-02-19T02:31:35.917Z,98718.95
2023-02-19T02:34:18.759Z,98714.33
2023-02-19T02:36:52.764Z,98713.10
2023-02-19T02:39:25.455Z,98710.36
2023-02-19T02:42:18.127Z,98705.46
2023-02-19T02:45:09.952Z,98708.65
2023-02-19T02:47:45.020Z,98712.22
2023-02-19T02:50:22.115Z,98725.83
2023-02-19T02:53:14.868Z,98730.98
2023-02-19T02:55:46.857Z,98742.02
2023-02-19T02:58:16.830Z,98739.54
2023-02-19T03:01:10.359Z,98724.92
2023-02-19T03:03:42.256Z,98723.48
2023-02-19T03:06:14.212Z,98714.88
2023-02-19T03:09:09.227Z,98709.77
2023-02-19T03:11:59.013Z,98710.14
2023-02-19T03:15:04.990Z,98711.20
2023-02-19T03:17:59.220Z,98704.95
2023-02-19T03:20:31.079Z,98700.27
2023-02-19T03:23:00.843Z,98699.71
2023-02-19T03:25:52.982Z,98694.73
2023-02-19T03:28:48.250Z,98688.89
2023-02-19T03:31:21.215Z,98684.52
2023-02-19T03:33:57.530Z,98683.95
2023-02-19T03:36:33.757Z,98681.23
2023-02-19T03:39:06.185Z,98673.91
2023-02-19T03:41:55.988Z,98670.70
2023-02-19T03:44:29.880Z,98671.09
2023-02-19T03:47:23.936Z,98679.90
2023-02-19T03:50:00.946Z,98679.70
2023-02-19T03:52:46.082Z,98674.03
2023-02-19T03:55:18.266Z,98672.17
2023-02-19T03:57:51.657Z,98665.52
2023-02-19T04:00:28.121Z,98665.73
2023-02-19T04:03:08.514Z,98665.58
2023-02-19T04:05:44.635Z,98659.61
2023-02-19T04:08:17.599Z,98659.27
2023-02-19T04:10:52.000Z,98663.94
2023-02-19T04:13:24.848Z,98667.96
2023-02-19T04:15:55.780Z,98671.34
2023-02-19T04:18:31.238Z,98664.03
2023-02-19T04:21:00.771Z,98654.02
2023-02-19T04:23:32.043Z,98654.63
2023-02-19T04:26:01.303Z,98653.01
2023-02-19T04:28:29.272Z,98646.68
2023-02-19T04:30:57.157Z,98651.83
2023-02-19T04:33:25.082Z,98654.02
2023-02-19T04:35:53.026Z,98651.66
2023-02-19T04:38:20.847Z,98655.26
2023-02-19T04:40:51.392Z,98657.74
2023-02-19T04:43:19.969Z,98650.01
2023-02-19T04:45:47.839Z,98646.52
2023-02-19T04:48:15.750Z,98644.31
2023-02-19T04:50:43.585Z,98647.85
2023-02-19T04:53:11.389Z,98644.94
2023-02-19T04:55:39.863Z,98646.54
2023-02-19T04:58:07.696Z,98645.80
2023-02-19T05:00:35.539Z,98640.46
2023-02-19T05:03:03.458Z,98640.55
2023-02-19T05:05:31.420Z,98637.45
2023-02-19T05:07:59.286Z,98634.17
2023-02-19T05:10:27.085Z,98635.80
2023-02-19T05:12:57.821Z,98629.63
2023-02-19T05:15:25.880Z,98623.05
2023-02-19T05:17:53.707Z,98620.26
2023-02-19T05:20:22.972Z,98620.83
2023-02-19T05:22:50.984Z,98618.48
2023-02-19T05:25:18.819Z,98609.89
2023-02-19T05:27:46.658Z,98605.23
2023-02-19T05:30:14.527Z,98602.52
2023-02-19T05:32:42.342Z,98603.82
2023-02-19T05:35:10.126Z,98603.73
2023-02-19T05:37:37.967Z,98598.48
2023-02-19T05:40:06.182Z,98590.21
2023-02-19T05:54:45.561Z,98582.09
2023-02-19T05:57:13.495Z,98583.84
2023-02-19T05:59:41.348Z,98584.73
2023-02-19T06:02:09.203Z,98586.16
2023-02-19T06:04:37.056Z,98583.60
2023-02-19T06:07:04.903Z,98581.31
2023-02-19T06:09:32.891Z,98583.85
2023-02-19T06:12:00.749Z,98587.41
2023-02-19T06:14:28.713Z,98589.15
2023-02-19T06:16:56.599Z,98591.98
2023-02-19T06:19:24.470Z,98599.36
2023-02-19T06:21:52.441Z,98602.23
2023-02-19T06:24:20.372Z,98604.84
2023-02-19T06:26:48.255Z,98607.36
2023-02-19T06:29:17.535Z,98609.11
2023-02-19T06:31:45.814Z,98612.17
2023-02-19T06:34:13.943Z,98618.41
2023-02-19T06:36:41.774Z,98626.16
2023-02-19T06:39:10.411Z,98627.42
2023-02-19T06:41:38.301Z,98620.60
2023-02-19T06:44:06.143Z,98635.98
2023-02-19T06:46:34.298Z,98636.24
2023-02-19T06:49:04.725Z,98651.55
2023-02-19T06:51:32.996Z,98669.94
2023-02-19T06:54:04.472Z,98668.40
2023-02-19T06:56:41.995Z,98677.13
2023-02-19T06:59:16.879Z,98678.20
2023-02-19T07:01:45.799Z,98672.96
2023-02-19T07:04:14.108Z,98678.07
2023-02-19T07:06:42.418Z,98682.66
2023-02-19T07:09:11.286Z,98684.39
2023-02-19T07:11:40.273Z,98686.09
2023-02-19T07:14:13.734Z,98688.14
2023-02-19T07:16:41.729Z,98680.96
2023-02-19T07:19:10.753Z,98679.80
2023-02-19T07:21:39.470Z,98683.18
2023-02-19T07:24:07.393Z,98687.75
2023-02-19T07:26:35.887Z,98683.05
2023-02-19T07:29:04.237Z,98685.89
2023-02-19T07:31:32.449Z,98692.93
2023-02-19T07:34:00.477Z,98689.77
2023-02-19T07:36:28.448Z,98697.09
2023-02-19T07:38:58.339Z,98697.43
2023-02-19T07:41:27.204Z,98697.29
2023-02-19T07:43:57.614Z,98706.14
2023-02-19T07:46:25.846Z,98709.18
2023-02-19T07:48:53.828Z,98709.12
2023-02-19T07:51:22.036Z,98714.70
2023-02-19T07:53:50.559Z,98727.13
2023-02-19T07:56:19.807Z,98730.34
2023-02-19T07:58:48.024Z,98729.87
2023-02-19T08:01:44.373Z,98732.08
2023-02-19T08:04:14.050Z,98748.58
2023-02-19T08:06:42.380Z,98762.05
2023-02-19T08:09:10.429Z,98769.16
2023-02-19T08:11:58.882Z,98774.95
2023-02-19T08:14:27.310Z,98787.81
2023-02-19T08:16:55.381Z,98792.58
2023-02-19T08:19:23.337Z,98801.11
2023-02-19T08:21:51.238Z,98814.63
2023-02-19T08:24:19.145Z,98817.43
2023-02-19T08:26:47.110Z,98819.23
2023-02-19T08:29:14.963Z,98828.46
2023-02-19T08:31:42.985Z,98835.58
2023-02-19T08:34:11.116Z,98847.39
2023-02-19T08:36:39.049Z,98851.57
2023-02-19T08:39:07.327Z,98852.14
2023-02-19T08:41:35.202Z,98864.61
2023-02-19T08:44:03.044Z,98861.05
2023-02-19T08:46:32.487Z,98869.45
2023-02-19T08:49:01.515Z,98876.95
2023-02-19T08:51:29.405Z,98881.41
2023-02-19T08:53:57.280Z,98885.47
2023-02-19T08:56:25.492Z,98891.80
2023-02-19T08:58:53.530Z,98891.45
2023-02-19T09:01:21.582Z,98894.95
2023-02-19T09:03:49.666Z,98902.05
2023-02-19T09:06:19.839Z,98898.19
2023-02-19T09:08:47.710Z,98901.33
2023-02-19T09:11:15.887Z,98913.02
2023-02-19T09:13:44.691Z,98919.29
2023-02-19T09:16:12.842Z,98922.29
2023-02-19T09:18:40.902Z,98923.11
2023-02-19T09:21:09.140Z,98926.21
2023-02-19T09:23:37.806Z,98931.80
2023-02-19T09:26:09.352Z,98944.48
2023-02-19T09:28:39.830Z,98949.08
2023-02-19T09:31:13.752Z,98950.88
2023-02-19T09:33:43.797Z,98954.38
2023-02-19T09:36:13.058Z,98960.34
2023-02-19T09:38:41.083Z,98970.95
2023-02-19T09:41:15.795Z,98974.88
2023-02-19T09:43:44.212Z,98980.36
2023-02-19T09:46:27.535Z,98985.98
2023-02-19T09:49:04.334Z,98986.37
2023-02-19T09:51:36.678Z,98987.90
2023-02-19T09:54:07.898Z,98993.71
2023-02-19T09:56:35.841Z,99001.55
2023-02-19T09:59:04.418Z,99002.90
2023-02-19T10:01:37.925Z,99005.23
2023-02-19T10:04:05.869Z,99007.98
2023-02-19T10:06:36.298Z,99017.77
2023-02-19T10:09:27.231Z,99020.63
2023-02-19T10:11:56.208Z,99030.47
2023-02-19T10:14:36.974Z,99036.31
2023-02-19T10:17:06.620Z,99040.45
2023-02-19T10:19:36.102Z,99045.61
2023-02-19T10:22:04.755Z,99047.95
2023-02-19T10:24:32.712Z,99052.00
2023-02-19T10:27:00.712Z,99054.19
2023-02-19T10:29:28.849Z,99057.05
2023-02-19T10:32:29.903Z,99063.77
2023-02-19T10:35:10.614Z,99060.13
2023-02-19T10:37:57.400Z,99071.14
2023-02-19T10:40:29.367Z,99074.70
2023-02-19T10:43:01.337Z,99081.67
2023-02-19T10:45:38.521Z,99082.56
2023-02-19T10:48:21.087Z,99084.64
2023-02-19T10:50:57.081Z,99087.02
2023-02-19T10:53:41.487Z,99091.73
2023-02-19T10:56:26.663Z,99087.88
2023-02-19T10:58:55.281Z,99087.14
2023-02-19T11:01:27.152Z,99088.58
2023-02-19T11:04:15.618Z,99092.21
2023-02-19T11:06:45.091Z,99095.13
2023-02-19T11:09:24.510Z,99099.52
2023-02-19T11:11:54.116Z,99105.43
2023-02-19T11:14:25.796Z,99104.81
2023-02-19T11:16:56.520Z,99104.90
2023-02-19T11:19:27.044Z,99118.44
2023-02-19T11:21:55.775Z,99112.63
2023-02-19T11:24:34.897Z,99105.45
2023-02-19T11:27:16.086Z,99112.45
2023-02-19T11:29:44.011Z,99114.31
2023-02-19T11:32:21.109Z,99112.95
2023-02-19T11:34:49.205Z,99110.72
2023-02-19T11:37:20.826Z,99112.83
2023-02-19T11:39:50.690Z,99119.65
2023-02-19T11:42:30.302Z,99116.20
2023-02-19T11:45:16.738Z,99120.01
2023-02-19T11:47:50.454Z,99115.67
2023-02-19T11:50:42.630Z,99116.42
2023-02-19T11:53:25.143Z,99128.81
2023-02-19T11:56:04.032Z,99126.43
2023-02-19T11:58:44.515Z,99127.60
2023-02-19T12:01:38.324Z,99128.42
2023-02-19T12:04:15.061Z,99129.83
2023-02-19T12:07:04.869Z,99137.89
2023-02-19T12:09:47.851Z,99150.03
2023-02-19T12:12:37.449Z,99147.33
2023-02-19T12:15:21.874Z,99149.41
2023-02-19T12:18:05.651Z,99171.11
2023-02-19T12:20:59.817Z,99184.46
2023-02-19T12:23:43.743Z,99185.88
2023-02-19T12:26:35.455Z,99177.75
2023-02-19T12:29:31.312Z,99176.91
2023-02-19T12:32:37.468Z,99182.61
2023-02-19T12:35:30.248Z,99187.49
2023-02-19T12:38:10.165Z,99174.33
2023-02-19T12:40:41.212Z,99185.35
2023-02-19T12:43:12.176Z,99190.98
2023-02-19T12:45:56.134Z,99199.48
2023-02-19T12:48:42.679Z,99205.77
2023-02-19T12:51:32.469Z,99201.00
2023-02-19T12:54:15.039Z,99206.86
2023-02-19T12:56:56.278Z,99213.83
2023-02-19T12:59:39.418Z,99214.80
2023-02-19T13:02:14.792Z,99211.96
2023-02-19T13:04:58.723Z,99212.02
2023-02-19T13:07:53.400Z,99207.42
2023-02-19T13:10:33.936Z,99209.53
2023-02-19T13:13:07.848Z,99210.58
2023-02-19T13:15:41.653Z,99207.55
2023-02-19T13:18:18.783Z,99210.73
2023-02-19T13:20:48.882Z,99207.35
2023-02-19T13:23:47.253Z,99210.10
2023-02-19T13:26:27.306Z,99202.64
2023-02-19T13:29:29.631Z,99201.46
2023-02-19T13:32:09.874Z,99206.90
2023-02-19T13:35:03.004Z,99201.42
2023-02-19T13:37:35.370Z,99214.33
2023-02-19T13:40:18.131Z,99206.90
2023-02-19T13:42:54.108Z,99204.45
2023-02-19T13:45:27.364Z,99211.27
2023-02-19T13:47:55.221Z,99210.86
2023-02-19T13:50:30.600Z,99217.11
2023-02-19T13:53:22.682Z,99214.00
2023-02-19T13:55:52.719Z,99222.77
2023-02-19T13:58:33.066Z,99227.77
2023-02-19T14:01:11.592Z,99226.23
2023-02-19T14:03:42.957Z,99231.63
2023-02-19T14:06:11.042Z,99251.58
2023-02-19T14:08:49.608Z,99248.25
2023-02-19T14:11:19.395Z,99257.59
2023-02-19T14:13:50.819Z,99256.27
2023-02-19T14:16:48.549Z,99269.67
2023-02-19T14:19:42.117Z,99270.57
2023-02-19T14:22:47.873Z,99272.64
2023-02-19T14:25:30.643Z,99266.74
2023-02-19T14:28:15.070Z,99278.14
2023-02-19T14:31:01.091Z,99285.91
2023-02-19T14:33:43.318Z,99280.65
2023-02-19T14:36:31.432Z,99288.59
2023-02-19T14:39:12.069Z,99300.61
2023-02-19T14:41:45.169Z,99309.67
2023-02-19T14:44:18.313Z,99305.47
2023-02-19T14:47:00.648Z,99311.40
2023-02-19T14:49:44.416Z,99312.73
2023-02-19T14:52:20.466Z,99311.63
2023-02-19T14:54:56.741Z,99316.77
2023-02-19T14:57:29.143Z,99320.56
2023-02-19T15:00:03.621Z,99321.38
2023-02-19T15:02:32.691Z,99323.32
2023-02-19T15:05:00.775Z,99326.34
2023-02-19T15:07:32.869Z,99326.05
2023-02-19T15:10:05.786Z,99331.00
2023-02-19T15:12:47.820Z,99331.42
2023-02-19T15:15:22.891Z,99330.82
2023-02-19T15:17:53.225Z,99337.80
2023-02-19T15:20:25.741Z,99344.24
2023-02-19T15:22:55.390Z,99345.21
2023-02-19T15:25:33.937Z,99356.01
2023-02-19T15:28:27.373Z,99358.33
2023-02-19T15:30:58.182Z,99364.63
2023-02-19T15:33:27.564Z,99368.36
2023-02-19T15:35:58.555Z,99373.77
2023-02-19T15:38:26.982Z,99377.73
2023-02-19T15:40:57.795Z,99382.31
2023-02-19T15:43:49.794Z,99389.17
2023-02-19T15:46:21.058Z,99386.11
2023-02-19T15:49:07.849Z,99388.73
2023-02-19T15:51:51.458Z,99396.86
2023-02-19T15:54:35.925Z,99406.27
2023-02-19T15:57:14.310Z,99407.64
2023-02-19T15:59:48.540Z,99419.98
2023-02-19T16:02:16.923Z,99420.59
2023-02-19T16:04:45.675Z,99417.54
2023-02-19T16:07:27.491Z,99420.99
2023-02-19T16:10:30.784Z,99431.59
2023-02-19T16:13:00.760Z,99434.85
2023-02-19T16:15:31.150Z,99432.85
2023-02-19T16:18:00.005Z,99434.29
2023-02-19T16:20:31.039Z,99436.29
2023-02-19T16:23:12.493Z,99439.77
2023-02-19T16:25:46.360Z,99442.48
2023-02-19T16:28:22.315Z,99447.48
2023-02-19T16:31:02.343Z,99458.02
2023-02-19T16:33:48.399Z,99458.01
2023-02-19T16:36:41.515Z,99468.55
2023-02-19T16:39:09.484Z,99475.66
2023-02-19T16:41:40.234Z,99476.58
2023-02-19T16:44:44.105Z,99478.65
2023-02-19T16:47:20.737Z,99477.65
2023-02-19T16:49:48.649Z,99483.78
2023-02-19T16:52:16.977Z,99491.05
2023-02-19T16:54:45.038Z,99493.28
2023-02-19T16:57:12.950Z,99493.98
2023-02-19T16:59:40.881Z,99496.95
2023-02-19T17:02:14.745Z,99503.58
2023-02-19T17:04:42.758Z,99504.98
2023-02-19T17:07:14.920Z,99514.73
2023-02-19T17:09:43.027Z,99518.84
2023-02-19T17:12:13.544Z,99524.35
2023-02-19T17:14:41.556Z,99528.78
2023-02-19T17:17:09.548Z,99530.02
2023-02-19T17:19:39.299Z,99533.74
2023-02-19T17:22:07.945Z,99531.73
2023-02-19T17:24:36.053Z,99529.60
2023-02-19T17:27:04.169Z,99525.31
2023-02-19T17:29:33.996Z,99527.81
2023-02-19T17:32:02.045Z,99533.48
2023-02-19T17:34:30.216Z,99541.59
2023-02-19T17:36:58.312Z,99552.63
2023-02-19T17:39:26.344Z,99550.04
2023-02-19T17:41:54.250Z,99553.91
2023-02-19T17:44:22.092Z,99558.80
2023-02-19T17:46:49.975Z,99563.88
2023-02-19T17:49:17.930Z,99566.02
2023-02-19T17:51:45.819Z,99561.73
2023-02-19T17:54:13.688Z,99566.29
2023-02-19T17:56:46.241Z,99574.81
2023-02-19T17:59:14.178Z,99578.45
2023-02-19T18:01:42.130Z,99572.50
2023-02-19T18:04:10.103Z,99578.37
2023-02-19T18:06:38.123Z,99578.34
2023-02-19T18:09:06.054Z,99581.61
2023-02-19T18:11:35.481Z,99584.92
2023-02-19T18:14:04.312Z,99588.05
2023-02-19T18:16:32.482Z,99594.11
2023-02-19T18:19:02.298Z,99599.14
2023-02-19T18:21:30.511Z,99604.51
2023-02-19T18:23:58.444Z,99612.35
2023-02-19T18:26:26.415Z,99610.45
2023-02-19T18:28:54.434Z,99613.63
2023-02-19T18:31:22.407Z,99617.14
2023-02-19T18:33:50.433Z,99619.59
2023-02-19T18:36:18.430Z,99620.84
2023-02-19T18:38:46.613Z,99619.77
2023-02-19T18:41:19.783Z,99623.44
2023-02-19T18:43:48.442Z,99626.80
2023-02-19T18:46:16.525Z,99636.41
2023-02-19T18:48:44.432Z,99645.04
2023-02-19T18:51:13.850Z,99647.58
2023-02-19T18:53:43.116Z,99644.91
2023-02-19T18:56:10.973Z,99642.74
2023-02-19T18:58:38.907Z,99641.65
2023-02-19T19:01:06.899Z,99645.73
2023-02-19T19:03:34.857Z,99650.83
2023-02-19T19:06:02.843Z,99657.12
2023-02-19T19:08:31.005Z,99652.48
2023-02-19T19:10:58.874Z,99655.70
2023-02-19T19:13:26.750Z,99654.39
2023-02-19T19:15:54.649Z,99647.80
2023-02-19T19:18:22.871Z,99646.31
2023-02-19T19:20:50.820Z,99647.44
2023-02-19T19:23:18.653Z,99646.46
2023-02-19T19:25:46.546Z,99645.33
2023-02-19T19:28:14.414Z,99651.30
2023-02-19T19:30:42.443Z,99659.34
2023-02-19T19:33:12.163Z,99658.50
2023-02-19T19:35:42.441Z,99659.74
2023-02-19T19:38:10.390Z,99666.92
2023-02-19T19:40:38.316Z,99676.17
2023-02-19T19:43:06.320Z,99678.77
2023-02-19T19:45:34.332Z,99678.62
2023-02-19T19:48:02.230Z,99681.09
2023-02-19T19:50:30.468Z,99679.92
2023-02-19T19:52:58.830Z,99682.05
2023-02-19T19:55:26.711Z,99680.53
2023-02-19T19:57:54.677Z,99683.91
2023-02-19T20:00:24.470Z,99689.00
2023-02-19T20:02:52.703Z,99687.62
2023-02-19T20:05:20.811Z,99689.21
2023-02-19T20:07:49.725Z,99689.05
2023-02-19T20:10:20.044Z,99690.45
2023-02-19T20:12:47.935Z,99694.45
2023-02-19T20:15:21.754Z,99701.23
2023-02-19T20:17:50.468Z,99699.48
2023-02-19T20:20:19.023Z,99695.50
2023-02-19T20:22:46.921Z,99698.66
2023-02-19T20:25:16.138Z,99701.80
2023-02-19T20:27:44.373Z,99705.68
2023-02-19T20:30:13.974Z,99707.99
2023-02-19T20:32:41.966Z,99713.26
2023-02-19T20:35:10.381Z,99713.79
2023-02-19T20:37:39.787Z,99710.70
2023-02-19T20:40:08.545Z,99713.86
2023-02-19T20:42:36.487Z,99718.40
2023-02-19T20:45:05.953Z,99718.59
2023-02-19T20:47:33.933Z,99723.10
2023-02-19T20:50:01.828Z,99728.33
2023-02-19T20:52:29.741Z,99724.54
2023-02-19T20:54:57.675Z,99728.73
2023-02-19T20:57:25.840Z,99739.03
2023-02-19T20:59:53.864Z,99744.64
2023-02-19T21:02:29.415Z,99746.06
2023-02-19T21:04:57.874Z,99749.91
2023-02-19T21:07:26.313Z,99756.89
2023-02-19T21:09:54.628Z,99759.88
2023-02-19T21:12:22.928Z,99760.60
2023-02-19T21:14:51.271Z,99758.86
2023-02-19T21:17:19.133Z,99753.98
2023-02-19T21:19:50.152Z,99756.59
2023-02-19T21:22:18.217Z,99758.68
2023-02-19T21:24:49.580Z,99762.84
2023-02-19T21:27:18.312Z,99770.49
2023-02-19T21:29:47.222Z,99781.98
2023-02-19T21:32:15.283Z,99788.44
2023-02-19T21:34:43.551Z,99784.50
2023-02-19T21:37:11.516Z,99784.90
2023-02-19T21:39:39.569Z,99784.94
2023-02-19T21:42:07.588Z,99781.68
2023-02-19T21:44:35.481Z,99783.59
2023-02-19T21:47:03.373Z,99782.23
2023-02-19T21:49:31.649Z,99786.07
2023-02-19T21:51:59.585Z,99790.43
2023-02-19T21:54:27.533Z,99793.58
2023-02-19T21:56:55.478Z,99790.30
2023-02-19T21:59:23.564Z,99797.95
2023-02-19T22:01:51.399Z,99804.36
2023-02-19T22:04:21.561Z,99808.02
2023-02-19T22:06:49.522Z,99811.16
2023-02-19T22:09:17.435Z,99814.83
2023-02-19T22:11:45.302Z,99812.23
2023-02-19T22:14:13.177Z,99813.29
2023-02-19T22:16:41.158Z,99817.30
2023-02-19T22:19:11.943Z,99817.17
2023-02-19T22:21:43.899Z,99811.30
2023-02-19T22:24:17.589Z,99805.77
2023-02-19T22:26:45.696Z,99809.07
2023-02-19T22:29:15.459Z,99815.15
2023-02-19T22:31:43.854Z,99813.76
2023-02-19T22:34:12.206Z,99810.61
2023-02-19T22:36:40.585Z,99813.36
2023-02-19T22:39:16.807Z,99813.33
2023-02-19T22:41:44.894Z,99810.67
2023-02-19T22:44:12.844Z,99811.36
2023-02-19T22:46:47.106Z,99807.15
2023-02-19T22:49:15.443Z,99808.50
2023-02-19T22:52:05.556Z,99805.50
2023-02-19T22:54:34.328Z,99808.92
2023-02-19T22:57:02.759Z,99807.84
2023-02-19T22:59:30.955Z,99806.08
2023-02-19T23:01:58.860Z,99807.44
2023-02-19T23:04:26.917Z,99812.44
2023-02-19T23:06:54.915Z,99811.22
2023-02-19T23:09:25.702Z,99810.68
2023-02-19T23:12:01.515Z,99811.20
2023-02-19T23:14:29.399Z,99809.11
2023-02-19T23:16:58.399Z,99806.32
2023-02-19T23:19:26.893Z,99801.60
2023-02-19T23:21:54.997Z,99797.56
2023-02-19T23:24:22.857Z,99797.54
2023-02-19T23:26:52.701Z,99796.30
2023-02-19T23:29:25.255Z,99791.95
2023-02-19T23:31:54.823Z,99786.22
2023-02-19T23:34:22.882Z,99781.68
2023-02-19T23:36:51.918Z,99771.95
2023-02-19T23:39:21.611Z,99762.40
2023-02-19T23:41:52.284Z,99760.66
2023-02-19T23:44:21.931Z,99756.64
2023-02-19T23:46:50.813Z,99750.36
2023-02-19T23:49:19.426Z,99751.36
2023-02-19T23:51:47.681Z,99746.63
2023-02-19T23:54:15.679Z,99746.56
2023-02-19T23:56:43.553Z,99752.40
2023-02-19T23:59:12.318Z,99751.11
